Time;durP1;ratioP1;P1;durP2;ratioP2;P2;SDS_P1;SDS_P2;PMS_P1;PMS_P2;Temp;Humidity;BMP_temperature;BMP_pressure;BME280_temperature;BME280_humidity;BME280_pressure;Samples;Min_cycle;Max_cycle;Signal;HPM_P1;HPM_P2
2021/12/18 00:01:21;;;;;;;60.40;37.43;;;11.00;84.70;;;;;;4932279;29;20637;-81
2021/12/18 00:03:48;;;;;;;63.60;38.30;;;11.00;84.70;;;;;;4932453;29;20260;-81
2021/12/18 00:06:15;;;;;;;67.90;34.33;;;11.00;84.70;;;;;;4931596;29;20310;-80
2021/12/18 00:08:43;;;;;;;66.77;33.53;;;11.00;84.70;;;;;;4931602;29;20235;-80
2021/12/18 00:11:10;;;;;;;66.07;35.20;;;11.00;84.50;;;;;;4931579;29;20215;-81
2021/12/18 00:13:39;;;;;;;57.47;31.93;;;11.00;84.50;;;;;;4931353;29;20675;-81
2021/12/18 00:16:07;;;;;;;59.20;33.20;;;11.00;84.40;;;;;;4931438;29;20303;-81
2021/12/18 00:18:35;;;;;;;61.77;32.40;;;11.00;84.50;;;;;;4931093;29;20224;-82
2021/12/18 00:21:03;;;;;;;68.43;36.60;;;11.00;84.50;;;;;;4931381;29;20236;-81
2021/12/18 00:23:30;;;;;;;60.27;36.40;;;11.00;84.50;;;;;;4931517;29;20239;-81
2021/12/18 00:25:57;;;;;;;66.03;34.23;;;11.00;84.60;;;;;;4930668;29;20231;-81
2021/12/18 00:28:24;;;;;;;61.13;34.53;;;11.00;84.70;;;;;;4930965;29;20318;-81
2021/12/18 00:30:52;;;;;;;61.70;33.10;;;11.00;84.70;;;;;;4930516;29;20299;-80
2021/12/18 00:33:19;;;;;;;67.60;32.83;;;11.00;84.50;;;;;;4930865;29;20295;-81
2021/12/18 00:35:46;;;;;;;64.53;32.37;;;11.00;84.50;;;;;;4930818;29;20287;-81
2021/12/18 00:38:13;;;;;;;67.90;34.93;;;11.00;84.50;;;;;;4931116;29;20227;-81
2021/12/18 00:40:47;;;;;;;61.80;34.97;;;11.00;84.50;;;;;;4930578;29;20318;-81
2021/12/18 00:43:24;;;;;;;65.93;32.10;;;11.00;84.50;;;;;;4913638;29;20260;-81
2021/12/18 00:45:53;;;;;;;59.90;33.03;;;11.00;84.60;;;;;;4931107;29;20199;-81
2021/12/18 00:48:20;;;;;;;48.87;29.67;;;11.00;84.50;;;;;;4930635;29;20311;-81
2021/12/18 00:50:47;;;;;;;61.57;32.30;;;11.00;84.50;;;;;;4931496;29;20755;-81
2021/12/18 00:53:15;;;;;;;52.20;31.43;;;11.00;84.50;;;;;;4930544;29;20243;-81
2021/12/18 00:55:42;;;;;;;71.50;32.80;;;11.00;84.50;;;;;;4929717;29;20239;-82
2021/12/18 00:58:09;;;;;;;62.97;33.17;;;11.10;84.50;;;;;;4930093;29;20297;-81
2021/12/18 01:00:38;;;;;;;57.43;32.13;;;11.00;84.50;;;;;;4930196;29;20239;-81
2021/12/18 01:03:15;;;;;;;55.97;30.83;;;11.10;84.50;;;;;;4931083;29;20636;-81
2021/12/18 01:05:41;;;;;;;54.27;29.53;;;11.10;84.40;;;;;;4929710;29;20201;-82
2021/12/18 01:08:08;;;;;;;51.07;28.00;;;11.00;84.50;;;;;;4930001;29;20259;-80
2021/12/18 01:10:50;;;;;;;52.73;30.57;;;11.00;84.50;;;;;;4930971;29;20299;-79
2021/12/18 01:13:22;;;;;;;59.73;32.80;;;11.00;84.40;;;;;;4930822;29;20212;-79
2021/12/18 01:15:53;;;;;;;50.80;30.03;;;11.00;84.50;;;;;;4930504;29;20208;-79
2021/12/18 01:23:51;;;;;;;58.07;31.43;;;11.00;84.50;;;;;;4930141;29;20267;-80
2021/12/18 01:26:18;;;;;;;47.20;29.67;;;11.00;84.50;;;;;;4930500;29;20197;-81
2021/12/18 01:28:45;;;;;;;54.03;29.60;;;11.00;84.70;;;;;;4930592;29;20227;-79
2021/12/18 01:31:12;;;;;;;49.70;30.40;;;11.00;84.50;;;;;;4930939;29;20238;-79
2021/12/18 01:33:41;;;;;;;48.87;29.23;;;11.00;84.60;;;;;;4930604;29;20291;-79
2021/12/18 01:36:08;;;;;;;52.87;29.87;;;11.00;84.50;;;;;;4930694;29;20284;-82
2021/12/18 01:38:35;;;;;;;58.17;28.87;;;11.00;84.50;;;;;;4929949;29;20228;-79
2021/12/18 01:41:03;;;;;;;57.20;29.63;;;11.00;84.50;;;;;;4930544;29;20272;-79
2021/12/18 01:44:21;;;;;;;52.97;30.50;;;11.00;84.50;;;;;;4930598;29;20205;-79
2021/12/18 01:46:46;;;;;;;42.70;29.27;;;11.10;84.70;;;;;;4933666;29;20196;-80
2021/12/18 01:52:15;;;;;;;53.93;30.03;;;11.10;84.50;;;;;;4933341;29;20247;-79
2021/12/18 01:54:44;;;;;;;52.60;33.00;;;11.10;84.70;;;;;;4933772;29;20204;-79
2021/12/18 01:57:11;;;;;;;48.20;29.07;;;11.00;84.60;;;;;;4933242;29;20228;-80
2021/12/18 01:59:40;;;;;;;59.17;32.10;;;11.00;85.10;;;;;;4933476;29;20307;-80
2021/12/18 02:02:07;;;;;;;54.73;31.40;;;11.00;84.70;;;;;;4934159;29;20252;-80
2021/12/18 02:04:36;;;;;;;48.50;28.33;;;11.10;84.90;;;;;;4933151;29;20208;-80
2021/12/18 02:07:04;;;;;;;51.40;32.00;;;11.00;84.80;;;;;;4933689;29;20242;-79
2021/12/18 02:09:48;;;;;;;45.73;27.50;;;11.10;85.00;;;;;;4933293;29;20224;-79
2021/12/18 02:12:16;;;;;;;52.33;29.93;;;11.10;84.90;;;;;;4933335;29;20408;-80
2021/12/18 02:20:36;;;;;;;55.17;33.33;;;11.10;85.00;;;;;;4932703;29;20318;-83
2021/12/18 02:23:03;;;;;;;47.63;28.07;;;11.10;84.90;;;;;;4933303;29;20310;-86
2021/12/18 02:25:31;;;;;;;48.40;27.87;;;11.10;85.00;;;;;;4932841;29;21398;-81
2021/12/18 02:27:59;;;;;;;53.90;29.77;;;11.10;84.90;;;;;;4933533;29;20259;-80
2021/12/18 02:30:26;;;;;;;58.23;31.67;;;11.10;84.80;;;;;;4932984;29;20204;-81
2021/12/18 02:32:54;;;;;;;50.10;28.90;;;11.10;84.80;;;;;;4933485;29;20593;-80
2021/12/18 02:35:28;;;;;;;51.80;30.27;;;11.10;84.80;;;;;;4932607;29;20279;-81
2021/12/18 02:38:08;;;;;;;55.87;30.00;;;11.10;84.60;;;;;;4932966;29;20210;-79
2021/12/18 02:40:59;;;;;;;52.23;29.70;;;11.10;84.50;;;;;;4933103;29;20240;-79
2021/12/18 02:43:27;;;;;;;62.77;30.07;;;11.10;84.80;;;;;;4932569;29;20283;-81
2021/12/18 02:45:59;;;;;;;45.23;29.87;;;11.10;84.80;;;;;;4933253;29;20294;-79
2021/12/18 02:48:28;;;;;;;58.87;30.00;;;11.10;84.70;;;;;;4932511;29;20224;-80
2021/12/18 02:50:58;;;;;;;58.97;30.43;;;11.10;84.70;;;;;;4932667;29;20247;-80
2021/12/18 02:53:26;;;;;;;58.80;32.10;;;11.10;84.70;;;;;;4933394;29;20242;-80
2021/12/18 02:55:58;;;;;;;51.27;30.57;;;11.10;84.90;;;;;;4932684;29;20569;-80
2021/12/18 02:58:26;;;;;;;55.93;31.57;;;11.10;84.70;;;;;;4932718;29;20323;-80
2021/12/18 03:00:54;;;;;;;44.23;28.17;;;11.10;84.90;;;;;;4932844;29;20267;-79
2021/12/18 03:03:24;;;;;;;48.10;28.37;;;11.10;85.00;;;;;;4932878;29;20200;-81
2021/12/18 03:06:06;;;;;;;63.10;31.93;;;11.10;84.90;;;;;;4913621;29;20211;-83
2021/12/18 03:08:42;;;;;;;54.60;28.23;;;11.10;84.80;;;;;;4916135;29;20315;-80
2021/12/18 03:24:59;;;;;;;52.47;27.73;;;11.20;85.00;;;;;;4932553;29;20674;-79
2021/12/18 03:27:26;;;;;;;54.40;29.57;;;11.20;85.10;;;;;;4932080;29;20536;-82
2021/12/18 03:29:55;;;;;;;72.77;34.27;;;11.20;85.00;;;;;;4931976;29;20271;-79
2021/12/18 03:32:22;;;;;;;50.00;28.73;;;11.20;85.00;;;;;;4932523;29;20202;-79
2021/12/18 03:34:50;;;;;;;45.70;29.87;;;11.20;85.00;;;;;;4933253;29;20298;-79
2021/12/18 03:37:19;;;;;;;53.43;29.97;;;11.20;85.00;;;;;;4932349;29;20291;-80
2021/12/18 03:39:47;;;;;;;56.03;29.37;;;11.20;85.00;;;;;;4931877;29;20320;-80
2021/12/18 03:42:14;;;;;;;53.00;29.60;;;11.20;85.00;;;;;;4931365;29;20238;-80
2021/12/18 03:44:41;;;;;;;58.83;30.87;;;11.20;85.70;;;;;;4932269;29;20283;-80
2021/12/18 03:47:08;;;;;;;52.23;29.93;;;11.20;85.00;;;;;;4932272;29;20198;-80
2021/12/18 03:49:35;;;;;;;50.23;27.57;;;11.20;84.90;;;;;;4931922;29;20283;-80
2021/12/18 03:52:02;;;;;;;54.10;30.63;;;11.20;84.80;;;;;;4930977;29;20621;-79
2021/12/18 03:54:30;;;;;;;51.20;32.10;;;11.20;84.90;;;;;;4931369;29;20662;-81
2021/12/18 03:56:57;;;;;;;62.87;31.90;;;11.20;84.80;;;;;;4931874;29;20288;-80
2021/12/18 03:59:24;;;;;;;48.20;28.90;;;11.20;84.80;;;;;;4932129;29;20270;-80
2021/12/18 04:01:51;;;;;;;55.90;31.93;;;11.20;84.90;;;;;;4931055;29;20328;-80
2021/12/18 04:04:18;;;;;;;52.43;30.13;;;11.20;84.90;;;;;;4931439;29;20243;-83
2021/12/18 04:06:46;;;;;;;49.60;27.20;;;11.20;84.80;;;;;;4931232;29;20201;-80
2021/12/18 04:09:13;;;;;;;50.93;29.13;;;11.20;84.70;;;;;;4931486;29;20256;-79
2021/12/18 04:11:42;;;;;;;53.83;27.60;;;11.20;85.40;;;;;;4931026;29;20283;-80
2021/12/18 04:14:10;;;;;;;54.77;29.17;;;11.20;84.50;;;;;;4931605;29;20299;-80
2021/12/18 04:16:38;;;;;;;66.27;33.63;;;11.20;84.60;;;;;;4930822;29;20203;-80
2021/12/18 04:19:05;;;;;;;57.93;28.73;;;11.20;84.70;;;;;;4930239;29;20291;-80
2021/12/18 04:21:34;;;;;;;56.33;29.80;;;11.20;84.80;;;;;;4931048;29;20327;-81
2021/12/18 04:24:02;;;;;;;56.77;28.20;;;11.20;84.70;;;;;;4931426;29;20767;-80
2021/12/18 04:26:30;;;;;;;53.53;30.50;;;11.20;84.70;;;;;;4931089;29;20200;-82
2021/12/18 04:28:59;;;;;;;51.07;28.20;;;11.20;84.70;;;;;;4930478;29;20696;-80
2021/12/18 04:31:27;;;;;;;61.30;28.73;;;11.20;84.60;;;;;;4930519;29;20223;-79
2021/12/18 04:33:54;;;;;;;57.63;30.27;;;11.20;84.60;;;;;;4928899;29;20236;-80
2021/12/18 04:36:22;;;;;;;55.77;28.50;;;11.20;84.60;;;;;;4930761;29;20210;-80
2021/12/18 04:38:49;;;;;;;52.83;30.53;;;11.20;84.60;;;;;;4930922;29;20224;-79
2021/12/18 04:41:22;;;;;;;51.83;28.57;;;11.20;84.60;;;;;;4931049;29;20256;-79
2021/12/18 04:43:49;;;;;;;45.30;27.57;;;11.20;85.30;;;;;;4931589;29;20228;-80
2021/12/18 04:46:17;;;;;;;50.43;29.13;;;11.20;84.50;;;;;;4931000;29;20283;-79
2021/12/18 04:48:44;;;;;;;45.63;27.10;;;11.20;84.50;;;;;;4930602;29;20228;-79
2021/12/18 04:51:11;;;;;;;46.83;27.83;;;11.20;84.50;;;;;;4931196;29;20295;-79
2021/12/18 04:53:38;;;;;;;50.63;27.63;;;11.20;84.50;;;;;;4930926;29;20236;-79
2021/12/18 04:56:05;;;;;;;56.83;28.53;;;11.20;84.50;;;;;;4930600;29;20291;-80
2021/12/18 04:58:32;;;;;;;42.53;24.97;;;11.20;84.40;;;;;;4930259;29;20677;-80
2021/12/18 05:00:59;;;;;;;56.60;29.43;;;11.20;84.40;;;;;;4930591;29;20327;-80
2021/12/18 05:03:28;;;;;;;42.73;26.53;;;11.20;84.40;;;;;;4931240;29;20287;-80
2021/12/18 05:05:55;;;;;;;51.03;28.30;;;11.20;84.40;;;;;;4931339;29;20207;-79
2021/12/18 05:08:22;;;;;;;51.07;28.67;;;11.20;84.40;;;;;;4930889;29;20258;-80
2021/12/18 05:10:49;;;;;;;46.27;25.73;;;11.20;84.40;;;;;;4931000;29;20291;-80
2021/12/18 05:13:16;;;;;;;45.17;27.83;;;11.20;84.40;;;;;;4930739;29;20291;-80
2021/12/18 05:15:43;;;;;;;52.07;26.60;;;11.20;84.40;;;;;;4930671;29;20303;-79
2021/12/18 05:18:10;;;;;;;55.87;28.97;;;11.20;84.30;;;;;;4930392;29;20311;-80
2021/12/18 05:20:38;;;;;;;60.93;28.80;;;11.20;84.30;;;;;;4934699;29;20208;-80
2021/12/18 05:23:05;;;;;;;49.40;25.57;;;11.30;84.20;;;;;;4934430;29;20307;-81
2021/12/18 05:25:32;;;;;;;57.20;29.50;;;11.20;84.10;;;;;;4934475;29;20299;-79
2021/12/18 05:27:59;;;;;;;53.27;25.73;;;11.20;84.10;;;;;;4933531;29;20294;-79
2021/12/18 05:30:26;;;;;;;58.87;28.00;;;11.20;84.10;;;;;;4933965;29;20282;-80
2021/12/18 05:32:53;;;;;;;63.40;27.33;;;11.20;84.00;;;;;;4934602;29;20291;-80
2021/12/18 05:35:20;;;;;;;49.67;26.77;;;11.20;84.00;;;;;;4934668;29;20675;-79
2021/12/18 05:37:50;;;;;;;66.37;29.50;;;11.20;84.10;;;;;;4933030;29;20643;-80
2021/12/18 05:40:20;;;;;;;52.60;25.73;;;11.20;84.00;;;;;;4934104;29;20208;-87
2021/12/18 05:42:48;;;;;;;54.93;26.20;;;11.20;84.10;;;;;;4933936;29;20323;-80
2021/12/18 05:45:16;;;;;;;56.53;27.83;;;11.20;84.20;;;;;;4933748;29;20294;-79
2021/12/18 05:47:44;;;;;;;56.10;25.87;;;11.20;84.20;;;;;;4933688;29;20645;-80
2021/12/18 05:50:12;;;;;;;45.20;26.13;;;11.20;84.20;;;;;;4934447;29;20212;-80
2021/12/18 05:52:40;;;;;;;53.67;25.90;;;11.20;84.10;;;;;;4933468;29;20292;-80
2021/12/18 05:55:10;;;;;;;57.17;25.43;;;11.20;84.20;;;;;;4933933;29;20232;-83
2021/12/18 05:57:37;;;;;;;56.80;26.63;;;11.20;84.00;;;;;;4930971;29;20284;-80
2021/12/18 06:00:06;;;;;;;48.00;25.70;;;11.20;84.10;;;;;;4933659;29;20266;-80
2021/12/18 06:02:33;;;;;;;45.70;26.77;;;11.20;84.10;;;;;;4933222;29;20243;-79
2021/12/18 06:05:01;;;;;;;48.60;25.10;;;11.20;84.10;;;;;;4934207;29;20231;-79
2021/12/18 06:07:30;;;;;;;56.27;27.47;;;11.20;84.10;;;;;;4933784;29;20626;-79
2021/12/18 06:09:58;;;;;;;62.30;28.77;;;11.20;84.00;;;;;;4934561;29;20332;-79
2021/12/18 06:12:26;;;;;;;66.57;28.27;;;11.20;83.90;;;;;;4932834;29;20748;-79
2021/12/18 06:14:54;;;;;;;59.83;26.43;;;11.20;83.80;;;;;;4933872;29;20303;-80
2021/12/18 06:17:20;;;;;;;52.77;27.07;;;11.20;83.90;;;;;;4933167;29;20298;-80
2021/12/18 06:19:48;;;;;;;54.67;27.33;;;11.20;84.00;;;;;;4933389;29;20722;-82
2021/12/18 06:22:14;;;;;;;51.13;27.03;;;11.20;84.00;;;;;;4932158;29;20224;-80
2021/12/18 06:24:41;;;;;;;65.50;29.73;;;11.20;84.00;;;;;;4932955;29;20312;-79
2021/12/18 06:27:08;;;;;;;49.30;25.80;;;11.10;84.10;;;;;;4933392;29;20303;-80
2021/12/18 06:29:39;;;;;;;57.47;28.37;;;11.20;84.30;;;;;;4932575;29;20275;-80
2021/12/18 06:32:07;;;;;;;56.40;29.03;;;11.10;84.20;;;;;;4932745;29;20203;-79
2021/12/18 06:34:35;;;;;;;54.50;28.23;;;11.20;84.40;;;;;;4933595;29;20212;-80
2021/12/18 06:37:02;;;;;;;57.63;26.97;;;11.10;84.30;;;;;;4933023;29;20294;-79
2021/12/18 06:39:29;;;;;;;59.70;25.77;;;11.20;84.40;;;;;;4933290;29;20259;-80
2021/12/18 06:41:56;;;;;;;64.37;30.83;;;11.10;84.30;;;;;;4932641;29;20319;-79
2021/12/18 06:44:23;;;;;;;63.33;30.97;;;11.10;84.30;;;;;;4933429;29;20282;-79
2021/12/18 06:46:52;;;;;;;58.60;31.30;;;11.20;84.40;;;;;;4933206;29;20298;-79
2021/12/18 06:49:19;;;;;;;68.13;33.47;;;11.10;84.30;;;;;;4932711;29;20581;-79
2021/12/18 06:51:46;;;;;;;61.90;33.07;;;11.10;84.20;;;;;;4933205;29;20235;-79
2021/12/18 06:54:13;;;;;;;68.03;30.20;;;11.10;84.30;;;;;;4932187;29;20723;-80
2021/12/18 06:56:40;;;;;;;65.80;32.27;;;11.10;84.40;;;;;;4932621;29;20208;-79
2021/12/18 06:59:07;;;;;;;61.83;30.17;;;11.10;84.40;;;;;;4932636;29;20244;-80
2021/12/18 07:01:34;;;;;;;63.60;29.57;;;11.10;84.50;;;;;;4932027;29;20319;-80
2021/12/18 07:04:02;;;;;;;71.30;32.77;;;11.10;84.60;;;;;;4962279;23;20700;-79
2021/12/18 07:06:29;;;;;;;54.80;26.57;;;11.10;84.50;;;;;;4971185;28;20293;-80
2021/12/18 07:08:56;;;;;;;65.13;25.77;;;11.20;84.70;;;;;;4959643;28;20230;-79
2021/12/18 07:11:24;;;;;;;54.73;27.10;;;11.10;84.60;;;;;;4940986;29;20299;-79
2021/12/18 07:13:51;;;;;;;67.80;27.97;;;11.10;84.70;;;;;;4933168;29;20283;-79
2021/12/18 07:16:18;;;;;;;53.70;27.73;;;11.10;84.70;;;;;;4951834;29;20294;-80
2021/12/18 07:18:44;;;;;;;50.63;27.93;;;11.10;84.70;;;;;;4952044;28;20227;-80
2021/12/18 07:21:13;;;;;;;48.27;23.90;;;11.10;84.70;;;;;;4949925;28;20254;-80
2021/12/18 07:23:40;;;;;;;51.63;23.03;;;11.20;84.80;;;;;;4940857;29;20287;-80
2021/12/18 07:26:07;;;;;;;59.67;27.90;;;11.20;84.80;;;;;;4933024;29;20794;-79
2021/12/18 07:28:34;;;;;;;49.27;22.27;;;11.20;84.80;;;;;;4932140;29;20318;-80
2021/12/18 07:31:01;;;;;;;55.73;26.27;;;11.20;84.80;;;;;;4943886;29;20282;-79
2021/12/18 07:33:28;;;;;;;49.47;23.67;;;11.20;84.80;;;;;;4951383;29;20546;-80
2021/12/18 07:35:55;;;;;;;53.03;24.67;;;11.20;84.80;;;;;;4951522;28;20239;-79
2021/12/18 07:38:23;;;;;;;44.27;24.27;;;11.20;84.80;;;;;;4935563;29;20220;-79
2021/12/18 07:40:50;;;;;;;45.80;24.23;;;11.20;84.80;;;;;;4933951;29;20231;-80
2021/12/18 07:43:17;;;;;;;50.47;21.70;;;11.20;84.80;;;;;;4948733;29;20782;-79
2021/12/18 07:45:44;;;;;;;51.67;23.47;;;11.20;84.80;;;;;;4933126;29;20778;-79
2021/12/18 07:48:11;;;;;;;54.07;21.97;;;11.20;84.80;;;;;;4949150;28;20888;-80
2021/12/18 07:50:38;;;;;;;49.07;22.00;;;11.20;84.80;;;;;;4946678;29;21791;-79
2021/12/18 07:53:05;;;;;;;50.80;22.70;;;11.20;84.80;;;;;;4935261;29;20287;-80
2021/12/18 07:55:33;;;;;;;53.70;23.10;;;11.20;84.80;;;;;;4931818;29;20243;-80
2021/12/18 07:58:00;;;;;;;49.13;23.43;;;11.20;84.70;;;;;;4948157;28;20692;-80
2021/12/18 08:00:27;;;;;;;40.63;22.37;;;11.20;84.80;;;;;;4947318;29;20734;-80
2021/12/18 08:02:54;;;;;;;58.20;24.93;;;11.20;84.80;;;;;;4949553;28;20322;-80
2021/12/18 08:05:31;;;;;;;;;;;;;;;;;;;;;
2021/12/18 08:07:51;;;;;;;53.17;23.43;;;11.20;84.70;;;;;;4930165;29;20298;-80
2021/12/18 08:10:18;;;;;;;46.80;25.23;;;11.20;84.80;;;;;;4931659;29;20204;-80
2021/12/18 08:12:46;;;;;;;47.30;24.10;;;11.20;84.80;;;;;;4931747;29;20295;-79
2021/12/18 08:15:13;;;;;;;42.90;23.63;;;11.20;84.80;;;;;;4931359;29;20307;-80
2021/12/18 08:17:40;;;;;;;49.47;24.30;;;11.20;84.80;;;;;;4933513;29;20239;-80
2021/12/18 08:20:09;;;;;;;48.83;22.87;;;11.20;84.90;;;;;;4932306;29;20258;-84
2021/12/18 08:22:36;;;;;;;46.83;22.33;;;11.20;84.80;;;;;;4931821;29;20236;-87
2021/12/18 08:25:04;;;;;;;54.03;23.53;;;11.20;84.80;;;;;;4931581;29;20315;-83
2021/12/18 08:27:31;;;;;;;43.50;21.57;;;11.20;84.80;;;;;;4932544;29;20320;-82
2021/12/18 08:30:00;;;;;;;56.87;23.37;;;11.20;84.70;;;;;;4931465;29;20436;-80
2021/12/18 08:32:27;;;;;;;65.00;24.33;;;11.20;84.50;;;;;;4930152;29;20295;-89
2021/12/18 08:34:54;;;;;;;45.03;22.20;;;11.20;84.50;;;;;;4932344;29;20301;-81
2021/12/18 08:37:21;;;;;;;48.20;20.17;;;11.20;84.50;;;;;;4930569;29;20205;-80
2021/12/18 08:39:48;;;;;;;49.73;23.63;;;11.20;84.40;;;;;;4938480;29;20229;-80
2021/12/18 08:42:16;;;;;;;51.77;21.57;;;11.20;84.40;;;;;;4945241;28;20569;-81
2021/12/18 08:44:42;;;;;;;42.70;20.57;;;11.20;84.40;;;;;;4931174;29;20924;-88
2021/12/18 08:47:11;;;;;;;46.27;22.13;;;11.20;84.40;;;;;;4929778;29;20311;-88
2021/12/18 08:49:39;;;;;;;43.40;22.00;;;11.10;84.30;;;;;;4939197;28;20342;-88
2021/12/18 08:52:06;;;;;;;45.90;21.83;;;11.10;84.30;;;;;;4929637;29;20204;-82
2021/12/18 08:54:33;;;;;;;53.93;23.20;;;11.10;84.50;;;;;;4940992;29;20292;-85
2021/12/18 08:57:00;;;;;;;69.17;24.40;;;11.10;84.60;;;;;;4934555;29;20208;-80
2021/12/18 08:59:27;;;;;;;53.87;22.60;;;11.10;84.70;;;;;;4935560;29;20310;-83
2021/12/18 09:01:54;;;;;;;49.87;23.93;;;11.10;84.70;;;;;;4934388;29;20311;-90
2021/12/18 09:04:22;;;;;;;54.43;25.83;;;11.10;84.80;;;;;;4935116;29;20199;-81
2021/12/18 09:06:49;;;;;;;49.43;22.13;;;11.10;84.90;;;;;;4934834;29;20215;-80
2021/12/18 09:09:16;;;;;;;62.30;26.73;;;11.10;85.00;;;;;;4934716;29;20282;-81
2021/12/18 09:11:43;;;;;;;55.73;23.87;;;11.10;85.10;;;;;;4934588;29;20329;-81
2021/12/18 09:14:10;;;;;;;57.37;25.63;;;11.10;85.10;;;;;;4943782;29;20727;-81
2021/12/18 09:16:36;;;;;;;54.77;26.33;;;11.20;85.20;;;;;;4936812;29;20240;-81
2021/12/18 09:19:04;;;;;;;57.43;23.27;;;11.20;85.20;;;;;;4935039;29;20315;-82
2021/12/18 09:21:32;;;;;;;53.50;24.73;;;11.20;85.10;;;;;;4935140;29;20268;-80
2021/12/18 09:23:59;;;;;;;74.93;25.43;;;11.20;85.10;;;;;;4935382;29;20315;-81
2021/12/18 09:26:26;;;;;;;60.20;27.17;;;11.20;85.10;;;;;;4934468;29;20213;-81
2021/12/18 09:28:53;;;;;;;61.17;27.63;;;11.20;85.00;;;;;;4934598;29;20248;-81
2021/12/18 09:31:20;;;;;;;66.40;26.00;;;11.20;85.10;;;;;;4930620;29;20612;-81
2021/12/18 09:33:47;;;;;;;80.40;28.33;;;11.20;85.10;;;;;;4929729;29;20284;-81
2021/12/18 09:36:14;;;;;;;111.60;30.27;;;11.20;85.10;;;;;;4929337;29;21020;-80
2021/12/18 09:38:43;;;;;;;126.33;32.13;;;11.20;85.10;;;;;;4926405;29;20867;-81
2021/12/18 09:41:10;;;;;;;60.07;24.47;;;11.30;85.00;;;;;;4927616;29;20303;-81
2021/12/18 09:43:38;;;;;;;78.03;28.43;;;11.30;85.00;;;;;;4925144;29;20326;-82
2021/12/18 09:46:08;;;;;;;64.07;26.00;;;11.30;85.00;;;;;;4926377;29;20314;-81
2021/12/18 09:48:35;;;;;;;56.00;23.23;;;11.30;85.00;;;;;;4931283;29;20251;-82
2021/12/18 09:51:07;;;;;;;77.70;25.77;;;11.30;85.00;;;;;;4932390;29;20292;-81
2021/12/18 09:53:34;;;;;;;67.30;28.33;;;11.30;84.90;;;;;;4926821;29;20248;-82
2021/12/18 09:56:04;;;;;;;67.50;27.03;;;11.30;85.00;;;;;;4927229;29;20216;-82
2021/12/18 09:58:32;;;;;;;57.67;24.83;;;11.30;85.00;;;;;;4931424;29;20444;-81
2021/12/18 10:00:59;;;;;;;58.30;24.77;;;11.30;84.90;;;;;;4930968;29;20974;-81
2021/12/18 10:03:45;;;;;;;55.27;24.20;;;11.30;84.90;;;;;;4926752;29;20235;-81
2021/12/18 10:06:35;;;;;;;84.47;27.17;;;11.30;84.80;;;;;;4929706;29;20673;-81
2021/12/18 10:09:05;;;;;;;64.97;24.93;;;11.30;84.80;;;;;;4929702;29;20295;-81
2021/12/18 10:11:33;;;;;;;68.27;23.80;;;11.30;85.00;;;;;;4930082;29;20937;-81
2021/12/18 10:14:03;;;;;;;54.23;22.17;;;11.30;85.00;;;;;;4930694;29;20635;-82
2021/12/18 10:16:31;;;;;;;63.03;23.57;;;11.30;85.10;;;;;;4931145;29;20295;-84
2021/12/18 10:19:00;;;;;;;55.10;22.00;;;11.40;85.20;;;;;;4929623;29;20240;-81
2021/12/18 10:21:28;;;;;;;47.87;22.47;;;11.40;85.10;;;;;;4931099;29;20291;-88
2021/12/18 10:23:58;;;;;;;64.77;24.00;;;11.40;85.10;;;;;;4932258;29;20333;-88
2021/12/18 10:26:39;;;;;;;57.10;23.33;;;11.40;85.10;;;;;;4932579;29;20311;-85
2021/12/18 10:29:22;;;;;;;57.90;25.00;;;11.40;85.00;;;;;;4932337;29;20351;-80
2021/12/18 10:31:49;;;;;;;64.13;26.40;;;11.40;85.10;;;;;;4932381;29;20291;-81
2021/12/18 10:34:22;;;;;;;53.00;25.07;;;11.40;85.10;;;;;;4934579;29;20622;-80
2021/12/18 10:37:15;;;;;;;55.67;25.83;;;11.40;84.90;;;;;;4932834;29;20303;-81
2021/12/18 10:39:56;;;;;;;54.50;24.77;;;11.50;84.80;;;;;;4933029;29;20632;-85
2021/12/18 10:42:27;;;;;;;56.57;25.30;;;11.50;84.90;;;;;;4933258;29;20366;-81
2021/12/18 10:45:08;;;;;;;68.67;26.77;;;11.50;84.80;;;;;;4933187;29;20219;-81
2021/12/18 10:47:53;;;;;;;58.63;26.10;;;11.50;84.60;;;;;;4932818;29;20613;-86
2021/12/18 10:50:24;;;;;;;58.70;25.30;;;11.40;84.30;;;;;;4932923;29;20290;-80
2021/12/18 10:52:57;;;;;;;62.00;24.90;;;11.50;84.40;;;;;;4945142;29;20442;-86
2021/12/18 10:55:40;;;;;;;54.40;24.50;;;11.50;84.50;;;;;;4952657;29;20208;-80
2021/12/18 10:58:11;;;;;;;63.13;24.70;;;11.40;84.10;;;;;;4951808;28;20239;-80
2021/12/18 11:00:47;;;;;;;54.10;24.40;;;11.40;84.30;;;;;;4951535;29;20348;-81
2021/12/18 11:03:17;;;;;;;55.83;23.13;;;11.40;84.20;;;;;;4951503;29;20238;-84
2021/12/18 11:05:44;;;;;;;54.07;23.87;;;11.50;84.20;;;;;;4951877;29;20254;-81
2021/12/18 11:08:13;;;;;;;61.87;23.43;;;11.40;84.20;;;;;;4951358;28;20306;-85
2021/12/18 11:10:43;;;;;;;51.60;22.83;;;11.40;84.00;;;;;;4933835;29;20556;-87
2021/12/18 11:15:56;;;;;;;66.20;25.33;;;11.40;83.90;;;;;;4932527;29;20220;-87
2021/12/18 11:18:24;;;;;;;60.17;25.53;;;11.40;84.10;;;;;;4928777;29;20323;-81
2021/12/18 11:20:53;;;;;;;57.17;23.07;;;11.40;84.20;;;;;;4932097;29;20295;-85
2021/12/18 11:23:31;;;;;;;57.27;22.87;;;11.50;84.40;;;;;;4929981;29;20601;-87
2021/12/18 11:25:58;;;;;;;58.93;26.90;;;11.40;84.20;;;;;;4932579;29;20248;-80
2021/12/18 11:28:28;;;;;;;49.80;26.20;;;11.50;84.50;;;;;;4931652;29;20323;-85
2021/12/18 11:30:55;;;;;;;64.20;26.90;;;11.50;84.40;;;;;;4932033;29;20287;-86
2021/12/18 11:33:22;;;;;;;67.40;28.30;;;11.50;84.50;;;;;;4932923;29;20212;-84
2021/12/18 11:35:50;;;;;;;82.97;30.37;;;11.50;84.50;;;;;;4932388;29;20357;-81
2021/12/18 11:38:19;;;;;;;75.93;26.00;;;11.50;84.50;;;;;;4931687;29;20248;-81
2021/12/18 11:40:50;;;;;;;56.47;26.37;;;11.50;84.40;;;;;;4931627;29;20201;-86
2021/12/18 11:43:39;;;;;;;79.77;28.83;;;11.60;84.60;;;;;;4936755;29;20242;-79
2021/12/18 11:46:30;;;;;;;58.40;24.53;;;11.60;84.40;;;;;;4934465;29;20251;-80
2021/12/18 11:48:59;;;;;;;52.23;25.93;;;11.60;84.50;;;;;;4931297;29;20222;-80
2021/12/18 11:51:26;;;;;;;94.97;29.90;;;11.60;84.80;;;;;;4929705;29;20204;-82
2021/12/18 11:53:53;;;;;;;62.37;27.13;;;11.60;84.70;;;;;;4931570;29;20218;-80
2021/12/18 11:56:20;;;;;;;50.90;24.87;;;11.60;84.60;;;;;;4931690;29;20315;-85
2021/12/18 11:58:50;;;;;;;66.03;26.70;;;11.70;84.60;;;;;;4931409;29;20255;-86
2021/12/18 12:01:20;;;;;;;57.83;25.27;;;11.70;84.30;;;;;;4931037;29;20255;-82
2021/12/18 12:03:57;;;;;;;59.73;26.47;;;11.70;84.30;;;;;;4931822;29;20312;-80
2021/12/18 12:06:35;;;;;;;58.53;24.47;;;11.70;84.30;;;;;;4931826;29;20309;-81
2021/12/18 12:09:21;;;;;;;74.67;27.97;;;11.70;84.30;;;;;;4931711;29;20655;-80
2021/12/18 12:11:54;;;;;;;88.37;27.53;;;11.70;84.30;;;;;;4929323;29;20298;-81
2021/12/18 12:14:23;;;;;;;56.50;25.20;;;11.70;84.30;;;;;;4921503;29;20201;-80
2021/12/18 12:17:02;;;;;;;58.87;25.87;;;11.70;84.30;;;;;;4931444;29;20232;-81
2021/12/18 12:20:05;;;;;;;103.93;28.03;;;11.70;84.30;;;;;;4928588;29;20255;-81
2021/12/18 12:22:39;;;;;;;54.07;23.77;;;11.80;84.40;;;;;;4926222;29;20208;-80
2021/12/18 12:25:08;;;;;;;65.63;24.20;;;11.80;84.40;;;;;;4927218;29;20201;-81
2021/12/18 12:27:38;;;;;;;61.30;22.13;;;11.80;84.40;;;;;;4928508;29;20212;-80
2021/12/18 12:30:09;;;;;;;56.47;22.80;;;11.80;84.40;;;;;;4928057;29;20220;-80
2021/12/18 12:32:37;;;;;;;64.90;23.43;;;11.80;85.10;;;;;;4929732;29;20286;-81
2021/12/18 12:35:08;;;;;;;47.77;21.50;;;11.80;84.40;;;;;;4928791;29;20208;-81
2021/12/18 12:37:38;;;;;;;53.97;20.37;;;11.80;84.40;;;;;;4928762;29;20306;-80
2021/12/18 12:40:10;;;;;;;60.30;22.83;;;11.80;84.40;;;;;;4928733;29;20228;-80
2021/12/18 12:42:38;;;;;;;45.93;20.40;;;11.80;84.40;;;;;;4929665;29;20248;-80
2021/12/18 12:45:12;;;;;;;53.37;25.30;;;11.80;84.40;;;;;;4927619;29;20240;-80
2021/12/18 12:47:39;;;;;;;57.33;23.27;;;11.90;84.40;;;;;;4929151;28;20200;-79
2021/12/18 12:50:29;;;;;;;46.57;19.40;;;11.90;84.50;;;;;;4929768;29;20307;-80
2021/12/18 12:52:59;;;;;;;50.10;22.67;;;11.90;84.10;;;;;;4925378;29;20211;-80
2021/12/18 12:55:28;;;;;;;56.40;24.30;;;11.90;84.20;;;;;;4929380;29;20666;-82
2021/12/18 12:57:57;;;;;;;54.30;20.47;;;11.90;84.10;;;;;;4929779;29;20200;-80
2021/12/18 13:00:51;;;;;;;48.67;20.30;;;11.90;84.00;;;;;;4929047;29;20290;-80
2021/12/18 13:03:30;;;;;;;44.70;21.17;;;11.90;83.60;;;;;;4927267;29;20239;-81
2021/12/18 13:06:01;;;;;;;45.90;19.83;;;11.90;83.60;;;;;;4928130;29;20214;-82
2021/12/18 13:08:29;;;;;;;50.77;21.13;;;11.90;83.70;;;;;;4929103;29;20570;-81
2021/12/18 13:10:59;;;;;;;47.60;18.93;;;11.90;83.80;;;;;;4930756;29;20748;-81